sensor_id;sensor_type;location;lat;lon;timestamp;P1;durP1;ratioP1;P2;durP2;ratioP2
36725;SDS011;44936;52.086;5.150;2024-01-30T00:00:21;7.15;;;3.22;;
36725;SDS011;44936;52.086;5.150;2024-01-30T00:02:46;10.88;;;3.80;;
36725;SDS011;44936;52.086;5.150;2024-01-30T00:05:11;7.82;;;2.88;;
36725;SDS011;44936;52.086;5.150;2024-01-30T00:07:37;10.05;;;3.13;;
36725;SDS011;44936;52.086;5.150;2024-01-30T00:10:02;11.27;;;3.78;;
36725;SDS011;44936;52.086;5.150;2024-01-30T00:12:28;8.80;;;3.70;;
36725;SDS011;44936;52.086;5.150;2024-01-30T00:14:53;10.07;;;3.60;;
36725;SDS011;44936;52.086;5.150;2024-01-30T00:17:19;6.85;;;3.10;;
36725;SDS011;44936;52.086;5.150;2024-01-30T00:19:45;14.98;;;3.80;;
36725;SDS011;44936;52.086;5.150;2024-01-30T00:22:11;7.32;;;3.20;;
36725;SDS011;44936;52.086;5.150;2024-01-30T00:24:36;8.48;;;3.05;;
36725;SDS011;44936;52.086;5.150;2024-01-30T00:27:02;7.13;;;2.97;;
36725;SDS011;44936;52.086;5.150;2024-01-30T00:29:27;8.13;;;3.10;;
36725;SDS011;44936;52.086;5.150;2024-01-30T00:31:55;7.15;;;2.50;;
36725;SDS011;44936;52.086;5.150;2024-01-30T00:34:21;9.27;;;3.00;;
36725;SDS011;44936;52.086;5.150;2024-01-30T00:36:46;7.80;;;3.30;;
36725;SDS011;44936;52.086;5.150;2024-01-30T00:39:11;8.25;;;2.60;;
36725;SDS011;44936;52.086;5.150;2024-01-30T00:41:37;5.60;;;2.65;;
36725;SDS011;44936;52.086;5.150;2024-01-30T00:44:02;8.02;;;2.97;;
36725;SDS011;44936;52.086;5.150;2024-01-30T00:46:28;7.30;;;3.03;;
36725;SDS011;44936;52.086;5.150;2024-01-30T00:48:53;8.50;;;3.10;;
36725;SDS011;44936;52.086;5.150;2024-01-30T00:51:18;6.65;;;3.05;;
36725;SDS011;44936;52.086;5.150;2024-01-30T00:53:44;8.57;;;3.15;;
36725;SDS011;44936;52.086;5.150;2024-01-30T00:56:10;6.32;;;2.83;;
36725;SDS011;44936;52.086;5.150;2024-01-30T00:58:35;6.95;;;2.80;;
36725;SDS011;44936;52.086;5.150;2024-01-30T01:01:01;10.25;;;3.50;;
36725;SDS011;44936;52.086;5.150;2024-01-30T01:03:26;9.88;;;3.20;;
36725;SDS011;44936;52.086;5.150;2024-01-30T01:05:51;6.65;;;2.70;;
36725;SDS011;44936;52.086;5.150;2024-01-30T01:08:17;10.80;;;3.08;;
36725;SDS011;44936;52.086;5.150;2024-01-30T01:10:43;6.97;;;3.40;;
36725;SDS011;44936;52.086;5.150;2024-01-30T01:13:08;8.80;;;3.22;;
36725;SDS011;44936;52.086;5.150;2024-01-30T01:15:33;8.30;;;3.38;;
36725;SDS011;44936;52.086;5.150;2024-01-30T01:17:58;8.60;;;2.80;;
36725;SDS011;44936;52.086;5.150;2024-01-30T01:20:24;10.23;;;2.80;;
36725;SDS011;44936;52.086;5.150;2024-01-30T01:22:49;6.60;;;2.63;;
36725;SDS011;44936;52.086;5.150;2024-01-30T01:25:14;8.07;;;3.35;;
36725;SDS011;44936;52.086;5.150;2024-01-30T01:27:40;5.57;;;2.50;;
36725;SDS011;44936;52.086;5.150;2024-01-30T01:30:09;8.57;;;3.10;;
36725;SDS011;44936;52.086;5.150;2024-01-30T01:32:35;5.72;;;2.72;;
36725;SDS011;44936;52.086;5.150;2024-01-30T01:35:01;9.30;;;2.97;;
36725;SDS011;44936;52.086;5.150;2024-01-30T01:37:27;7.55;;;2.75;;
36725;SDS011;44936;52.086;5.150;2024-01-30T01:39:52;7.07;;;2.97;;
36725;SDS011;44936;52.086;5.150;2024-01-30T01:42:18;6.28;;;2.60;;
36725;SDS011;44936;52.086;5.150;2024-01-30T01:44:43;7.32;;;3.25;;
36725;SDS011;44936;52.086;5.150;2024-01-30T01:47:08;7.45;;;3.08;;
36725;SDS011;44936;52.086;5.150;2024-01-30T01:49:34;5.18;;;2.65;;
36725;SDS011;44936;52.086;5.150;2024-01-30T01:51:59;12.63;;;3.45;;
36725;SDS011;44936;52.086;5.150;2024-01-30T01:54:25;13.60;;;3.17;;
36725;SDS011;44936;52.086;5.150;2024-01-30T01:56:52;9.13;;;2.92;;
36725;SDS011;44936;52.086;5.150;2024-01-30T01:59:18;8.25;;;3.30;;
36725;SDS011;44936;52.086;5.150;2024-01-30T02:01:45;9.23;;;3.22;;
36725;SDS011;44936;52.086;5.150;2024-01-30T02:04:14;7.50;;;3.20;;
36725;SDS011;44936;52.086;5.150;2024-01-30T02:06:39;6.85;;;3.40;;
36725;SDS011;44936;52.086;5.150;2024-01-30T02:09:04;8.70;;;3.28;;
36725;SDS011;44936;52.086;5.150;2024-01-30T02:11:30;7.32;;;3.10;;
36725;SDS011;44936;52.086;5.150;2024-01-30T02:13:55;9.75;;;3.38;;
36725;SDS011;44936;52.086;5.150;2024-01-30T02:16:21;5.68;;;3.13;;
36725;SDS011;44936;52.086;5.150;2024-01-30T02:18:46;6.82;;;3.00;;
36725;SDS011;44936;52.086;5.150;2024-01-30T02:21:14;8.73;;;3.38;;
36725;SDS011;44936;52.086;5.150;2024-01-30T02:23:40;7.40;;;3.17;;
36725;SDS011;44936;52.086;5.150;2024-01-30T02:26:07;9.57;;;3.30;;
36725;SDS011;44936;52.086;5.150;2024-01-30T02:28:33;7.13;;;3.08;;
36725;SDS011;44936;52.086;5.150;2024-01-30T02:30:58;7.03;;;3.03;;
36725;SDS011;44936;52.086;5.150;2024-01-30T02:33:23;9.30;;;3.53;;
36725;SDS011;44936;52.086;5.150;2024-01-30T02:35:49;7.88;;;2.97;;
36725;SDS011;44936;52.086;5.150;2024-01-30T02:38:15;8.10;;;3.13;;
36725;SDS011;44936;52.086;5.150;2024-01-30T02:40:40;8.43;;;3.08;;
36725;SDS011;44936;52.086;5.150;2024-01-30T02:43:06;8.68;;;3.78;;
36725;SDS011;44936;52.086;5.150;2024-01-30T02:45:31;9.88;;;3.22;;
36725;SDS011;44936;52.086;5.150;2024-01-30T02:47:56;8.00;;;3.40;;
36725;SDS011;44936;52.086;5.150;2024-01-30T02:50:22;8.75;;;3.20;;
36725;SDS011;44936;52.086;5.150;2024-01-30T02:52:47;8.45;;;3.25;;
36725;SDS011;44936;52.086;5.150;2024-01-30T02:55:12;9.80;;;3.10;;
36725;SDS011;44936;52.086;5.150;2024-01-30T02:57:38;8.50;;;3.70;;
36725;SDS011;44936;52.086;5.150;2024-01-30T03:00:04;8.18;;;3.33;;
36725;SDS011;44936;52.086;5.150;2024-01-30T03:02:31;6.50;;;2.80;;
36725;SDS011;44936;52.086;5.150;2024-01-30T03:04:57;8.73;;;3.25;;
36725;SDS011;44936;52.086;5.150;2024-01-30T03:07:23;7.22;;;2.83;;
36725;SDS011;44936;52.086;5.150;2024-01-30T03:09:48;10.88;;;3.45;;
36725;SDS011;44936;52.086;5.150;2024-01-30T03:12:14;8.30;;;3.53;;
36725;SDS011;44936;52.086;5.150;2024-01-30T03:14:39;9.57;;;3.42;;
36725;SDS011;44936;52.086;5.150;2024-01-30T03:17:04;8.32;;;3.15;;
36725;SDS011;44936;52.086;5.150;2024-01-30T03:19:30;4.85;;;2.60;;
36725;SDS011;44936;52.086;5.150;2024-01-30T03:21:55;6.22;;;2.92;;
36725;SDS011;44936;52.086;5.150;2024-01-30T03:24:20;8.68;;;3.25;;
36725;SDS011;44936;52.086;5.150;2024-01-30T03:26:45;8.63;;;3.50;;
36725;SDS011;44936;52.086;5.150;2024-01-30T03:29:11;7.82;;;3.08;;
36725;SDS011;44936;52.086;5.150;2024-01-30T03:31:36;7.13;;;3.05;;
36725;SDS011;44936;52.086;5.150;2024-01-30T03:34:02;8.57;;;3.05;;
36725;SDS011;44936;52.086;5.150;2024-01-30T03:36:27;8.65;;;3.45;;
36725;SDS011;44936;52.086;5.150;2024-01-30T03:38:53;8.50;;;3.03;;
36725;SDS011;44936;52.086;5.150;2024-01-30T03:41:18;6.88;;;2.95;;
36725;SDS011;44936;52.086;5.150;2024-01-30T03:43:44;7.20;;;2.90;;
36725;SDS011;44936;52.086;5.150;2024-01-30T03:46:11;8.10;;;3.25;;
36725;SDS011;44936;52.086;5.150;2024-01-30T03:48:37;9.45;;;3.15;;
36725;SDS011;44936;52.086;5.150;2024-01-30T03:51:02;6.50;;;3.22;;
36725;SDS011;44936;52.086;5.150;2024-01-30T03:53:28;7.70;;;3.25;;
36725;SDS011;44936;52.086;5.150;2024-01-30T03:55:53;9.30;;;3.30;;
36725;SDS011;44936;52.086;5.150;2024-01-30T03:58:19;9.82;;;3.85;;
36725;SDS011;44936;52.086;5.150;2024-01-30T04:00:44;8.85;;;3.45;;
36725;SDS011;44936;52.086;5.150;2024-01-30T04:03:09;9.73;;;3.97;;
36725;SDS011;44936;52.086;5.150;2024-01-30T04:05:35;7.72;;;3.20;;
36725;SDS011;44936;52.086;5.150;2024-01-30T04:08:00;9.20;;;3.10;;
36725;SDS011;44936;52.086;5.150;2024-01-30T04:10:25;12.13;;;4.13;;
36725;SDS011;44936;52.086;5.150;2024-01-30T04:12:51;11.05;;;4.00;;
36725;SDS011;44936;52.086;5.150;2024-01-30T04:15:16;11.35;;;3.85;;
36725;SDS011;44936;52.086;5.150;2024-01-30T04:17:42;10.27;;;3.90;;
36725;SDS011;44936;52.086;5.150;2024-01-30T04:20:08;12.43;;;4.18;;
36725;SDS011;44936;52.086;5.150;2024-01-30T04:22:37;7.68;;;3.58;;
36725;SDS011;44936;52.086;5.150;2024-01-30T04:25:02;8.35;;;3.30;;
36725;SDS011;44936;52.086;5.150;2024-01-30T04:27:28;9.85;;;3.42;;
36725;SDS011;44936;52.086;5.150;2024-01-30T04:29:53;9.88;;;3.47;;
36725;SDS011;44936;52.086;5.150;2024-01-30T04:32:18;9.27;;;3.63;;
36725;SDS011;44936;52.086;5.150;2024-01-30T04:34:43;8.50;;;3.60;;
36725;SDS011;44936;52.086;5.150;2024-01-30T04:37:09;8.70;;;3.67;;
36725;SDS011;44936;52.086;5.150;2024-01-30T04:39:35;9.52;;;3.50;;
36725;SDS011;44936;52.086;5.150;2024-01-30T04:42:01;8.73;;;2.90;;
36725;SDS011;44936;52.086;5.150;2024-01-30T04:44:27;9.15;;;3.67;;
36725;SDS011;44936;52.086;5.150;2024-01-30T04:46:52;9.25;;;2.80;;
36725;SDS011;44936;52.086;5.150;2024-01-30T04:49:17;7.97;;;3.15;;
36725;SDS011;44936;52.086;5.150;2024-01-30T04:51:43;9.05;;;3.50;;
36725;SDS011;44936;52.086;5.150;2024-01-30T04:54:08;11.02;;;3.53;;
36725;SDS011;44936;52.086;5.150;2024-01-30T04:56:33;8.02;;;3.22;;
36725;SDS011;44936;52.086;5.150;2024-01-30T04:59:01;10.00;;;3.30;;
36725;SDS011;44936;52.086;5.150;2024-01-30T05:01:27;8.00;;;3.38;;
36725;SDS011;44936;52.086;5.150;2024-01-30T05:03:53;7.97;;;3.30;;
36725;SDS011;44936;52.086;5.150;2024-01-30T05:06:27;7.63;;;3.85;;
36725;SDS011;44936;52.086;5.150;2024-01-30T05:08:53;8.63;;;3.05;;
36725;SDS011;44936;52.086;5.150;2024-01-30T05:11:21;8.05;;;2.97;;
36725;SDS011;44936;52.086;5.150;2024-01-30T05:13:47;6.75;;;2.72;;
36725;SDS011;44936;52.086;5.150;2024-01-30T05:16:12;7.13;;;2.90;;
36725;SDS011;44936;52.086;5.150;2024-01-30T05:18:38;8.75;;;3.00;;
36725;SDS011;44936;52.086;5.150;2024-01-30T05:21:03;9.13;;;3.25;;
36725;SDS011;44936;52.086;5.150;2024-01-30T05:23:30;7.82;;;3.17;;
36725;SDS011;44936;52.086;5.150;2024-01-30T05:25:55;10.18;;;3.00;;
36725;SDS011;44936;52.086;5.150;2024-01-30T05:28:21;7.47;;;2.88;;
36725;SDS011;44936;52.086;5.150;2024-01-30T05:30:47;9.32;;;3.67;;
36725;SDS011;44936;52.086;5.150;2024-01-30T05:33:13;7.53;;;2.92;;
36725;SDS011;44936;52.086;5.150;2024-01-30T05:35:38;8.80;;;2.75;;
36725;SDS011;44936;52.086;5.150;2024-01-30T05:38:03;9.25;;;3.10;;
36725;SDS011;44936;52.086;5.150;2024-01-30T05:40:29;9.10;;;2.83;;
36725;SDS011;44936;52.086;5.150;2024-01-30T05:42:55;9.77;;;2.97;;
36725;SDS011;44936;52.086;5.150;2024-01-30T05:45:21;9.63;;;2.88;;
36725;SDS011;44936;52.086;5.150;2024-01-30T05:47:48;7.20;;;2.47;;
36725;SDS011;44936;52.086;5.150;2024-01-30T05:50:13;7.40;;;2.95;;
36725;SDS011;44936;52.086;5.150;2024-01-30T05:52:39;6.90;;;2.40;;
36725;SDS011;44936;52.086;5.150;2024-01-30T05:55:04;8.65;;;2.50;;
36725;SDS011;44936;52.086;5.150;2024-01-30T05:57:30;7.78;;;2.85;;
36725;SDS011;44936;52.086;5.150;2024-01-30T05:59:58;6.30;;;2.50;;
36725;SDS011;44936;52.086;5.150;2024-01-30T06:02:23;6.32;;;2.28;;
36725;SDS011;44936;52.086;5.150;2024-01-30T06:04:48;9.18;;;3.00;;
36725;SDS011;44936;52.086;5.150;2024-01-30T06:07:14;8.63;;;2.40;;
36725;SDS011;44936;52.086;5.150;2024-01-30T06:09:39;6.60;;;2.60;;
36725;SDS011;44936;52.086;5.150;2024-01-30T06:12:05;8.02;;;3.20;;
36725;SDS011;44936;52.086;5.150;2024-01-30T06:14:31;8.05;;;2.88;;
36725;SDS011;44936;52.086;5.150;2024-01-30T06:16:57;4.20;;;2.00;;
36725;SDS011;44936;52.086;5.150;2024-01-30T06:19:23;7.70;;;2.53;;
36725;SDS011;44936;52.086;5.150;2024-01-30T06:21:48;6.88;;;2.72;;
36725;SDS011;44936;52.086;5.150;2024-01-30T06:24:13;3.97;;;2.03;;
36725;SDS011;44936;52.086;5.150;2024-01-30T06:26:39;4.78;;;2.10;;
36725;SDS011;44936;52.086;5.150;2024-01-30T06:29:04;5.60;;;2.60;;
36725;SDS011;44936;52.086;5.150;2024-01-30T06:31:30;5.28;;;2.30;;
36725;SDS011;44936;52.086;5.150;2024-01-30T06:33:57;5.57;;;2.05;;
36725;SDS011;44936;52.086;5.150;2024-01-30T06:36:22;7.25;;;2.25;;
36725;SDS011;44936;52.086;5.150;2024-01-30T06:38:47;7.60;;;2.80;;
36725;SDS011;44936;52.086;5.150;2024-01-30T06:41:13;8.98;;;3.10;;
36725;SDS011;44936;52.086;5.150;2024-01-30T06:43:38;5.15;;;2.00;;
36725;SDS011;44936;52.086;5.150;2024-01-30T06:46:03;6.22;;;2.65;;
36725;SDS011;44936;52.086;5.150;2024-01-30T06:48:29;6.28;;;2.45;;
36725;SDS011;44936;52.086;5.150;2024-01-30T06:50:54;7.50;;;2.55;;
36725;SDS011;44936;52.086;5.150;2024-01-30T06:53:20;5.50;;;2.47;;
36725;SDS011;44936;52.086;5.150;2024-01-30T06:55:45;5.45;;;2.17;;
36725;SDS011;44936;52.086;5.150;2024-01-30T06:58:10;7.20;;;2.90;;
36725;SDS011;44936;52.086;5.150;2024-01-30T07:00:36;6.38;;;1.85;;
36725;SDS011;44936;52.086;5.150;2024-01-30T07:03:01;7.05;;;2.60;;
36725;SDS011;44936;52.086;5.150;2024-01-30T07:05:27;7.38;;;2.28;;
36725;SDS011;44936;52.086;5.150;2024-01-30T07:07:52;6.75;;;2.42;;
36725;SDS011;44936;52.086;5.150;2024-01-30T07:10:17;8.07;;;2.53;;
36725;SDS011;44936;52.086;5.150;2024-01-30T07:12:43;7.43;;;3.03;;
36725;SDS011;44936;52.086;5.150;2024-01-30T07:15:08;7.13;;;2.47;;
36725;SDS011;44936;52.086;5.150;2024-01-30T07:17:34;9.30;;;2.78;;
36725;SDS011;44936;52.086;5.150;2024-01-30T07:20:00;6.28;;;2.40;;
36725;SDS011;44936;52.086;5.150;2024-01-30T07:22:26;7.50;;;2.60;;
36725;SDS011;44936;52.086;5.150;2024-01-30T07:24:51;6.82;;;2.53;;
36725;SDS011;44936;52.086;5.150;2024-01-30T07:27:17;6.53;;;2.40;;
36725;SDS011;44936;52.086;5.150;2024-01-30T07:29:43;7.60;;;2.50;;
36725;SDS011;44936;52.086;5.150;2024-01-30T07:32:08;7.05;;;2.85;;
36725;SDS011;44936;52.086;5.150;2024-01-30T07:34:33;8.10;;;2.70;;
36725;SDS011;44936;52.086;5.150;2024-01-30T07:36:59;7.18;;;2.53;;
36725;SDS011;44936;52.086;5.150;2024-01-30T07:39:26;7.38;;;2.50;;
36725;SDS011;44936;52.086;5.150;2024-01-30T07:41:51;5.82;;;2.40;;
36725;SDS011;44936;52.086;5.150;2024-01-30T07:44:16;6.22;;;2.40;;
36725;SDS011;44936;52.086;5.150;2024-01-30T07:46:42;8.15;;;2.53;;
36725;SDS011;44936;52.086;5.150;2024-01-30T07:49:07;10.73;;;2.60;;
36725;SDS011;44936;52.086;5.150;2024-01-30T07:51:34;8.60;;;2.83;;
36725;SDS011;44936;52.086;5.150;2024-01-30T07:53:59;5.47;;;2.50;;
36725;SDS011;44936;52.086;5.150;2024-01-30T07:56:25;7.40;;;2.28;;
36725;SDS011;44936;52.086;5.150;2024-01-30T07:58:50;6.32;;;2.80;;
36725;SDS011;44936;52.086;5.150;2024-01-30T08:01:15;5.88;;;2.80;;
36725;SDS011;44936;52.086;5.150;2024-01-30T08:03:41;7.75;;;2.15;;
36725;SDS011;44936;52.086;5.150;2024-01-30T08:06:06;6.95;;;2.78;;
36725;SDS011;44936;52.086;5.150;2024-01-30T08:08:38;6.30;;;2.38;;
36725;SDS011;44936;52.086;5.150;2024-01-30T08:11:03;4.93;;;2.00;;
36725;SDS011;44936;52.086;5.150;2024-01-30T08:13:29;8.00;;;2.92;;
36725;SDS011;44936;52.086;5.150;2024-01-30T08:15:54;6.72;;;2.40;;
36725;SDS011;44936;52.086;5.150;2024-01-30T08:18:19;7.10;;;2.30;;
36725;SDS011;44936;52.086;5.150;2024-01-30T08:20:45;6.50;;;2.38;;
36725;SDS011;44936;52.086;5.150;2024-01-30T08:23:10;6.05;;;2.17;;
36725;SDS011;44936;52.086;5.150;2024-01-30T08:25:36;8.05;;;2.58;;
36725;SDS011;44936;52.086;5.150;2024-01-30T08:28:01;5.15;;;2.25;;
36725;SDS011;44936;52.086;5.150;2024-01-30T08:30:27;9.15;;;2.60;;
36725;SDS011;44936;52.086;5.150;2024-01-30T08:32:52;6.68;;;2.40;;
36725;SDS011;44936;52.086;5.150;2024-01-30T08:35:17;6.22;;;2.40;;
36725;SDS011;44936;52.086;5.150;2024-01-30T08:37:43;6.78;;;2.53;;
36725;SDS011;44936;52.086;5.150;2024-01-30T08:40:08;5.63;;;2.10;;
36725;SDS011;44936;52.086;5.150;2024-01-30T08:42:34;5.57;;;2.15;;
36725;SDS011;44936;52.086;5.150;2024-01-30T08:44:59;7.55;;;2.40;;
36725;SDS011;44936;52.086;5.150;2024-01-30T08:47:24;8.15;;;2.38;;
36725;SDS011;44936;52.086;5.150;2024-01-30T08:49:50;6.10;;;2.30;;
36725;SDS011;44936;52.086;5.150;2024-01-30T08:52:16;6.07;;;2.20;;
36725;SDS011;44936;52.086;5.150;2024-01-30T08:54:42;7.30;;;3.17;;
36725;SDS011;44936;52.086;5.150;2024-01-30T08:57:07;6.78;;;2.47;;
36725;SDS011;44936;52.086;5.150;2024-01-30T08:59:33;7.35;;;3.17;;
36725;SDS011;44936;52.086;5.150;2024-01-30T09:01:58;4.05;;;2.10;;
36725;SDS011;44936;52.086;5.150;2024-01-30T09:04:24;5.70;;;2.03;;
36725;SDS011;44936;52.086;5.150;2024-01-30T09:06:49;6.88;;;2.58;;
36725;SDS011;44936;52.086;5.150;2024-01-30T09:09:15;7.13;;;2.47;;
36725;SDS011;44936;52.086;5.150;2024-01-30T09:11:40;9.77;;;2.47;;
36725;SDS011;44936;52.086;5.150;2024-01-30T09:14:06;10.00;;;2.30;;
36725;SDS011;44936;52.086;5.150;2024-01-30T09:16:32;7.07;;;2.42;;
36725;SDS011;44936;52.086;5.150;2024-01-30T09:18:57;6.78;;;2.50;;
36725;SDS011;44936;52.086;5.150;2024-01-30T09:21:22;5.75;;;2.63;;
36725;SDS011;44936;52.086;5.150;2024-01-30T09:23:48;7.30;;;2.60;;
36725;SDS011;44936;52.086;5.150;2024-01-30T09:26:14;8.27;;;2.40;;
36725;SDS011;44936;52.086;5.150;2024-01-30T09:28:39;5.97;;;2.58;;
36725;SDS011;44936;52.086;5.150;2024-01-30T09:31:09;9.35;;;2.40;;
36725;SDS011;44936;52.086;5.150;2024-01-30T09:33:35;7.93;;;2.65;;
36725;SDS011;44936;52.086;5.150;2024-01-30T09:36:01;10.43;;;2.85;;
36725;SDS011;44936;52.086;5.150;2024-01-30T09:38:26;9.60;;;2.83;;
36725;SDS011;44936;52.086;5.150;2024-01-30T09:40:53;6.10;;;2.25;;
36725;SDS011;44936;52.086;5.150;2024-01-30T09:43:22;7.30;;;2.67;;
36725;SDS011;44936;52.086;5.150;2024-01-30T09:45:49;5.78;;;2.58;;
36725;SDS011;44936;52.086;5.150;2024-01-30T09:48:18;6.90;;;3.05;;
36725;SDS011;44936;52.086;5.150;2024-01-30T09:50:44;7.97;;;2.50;;
36725;SDS011;44936;52.086;5.150;2024-01-30T09:53:09;5.82;;;2.80;;
36725;SDS011;44936;52.086;5.150;2024-01-30T09:55:38;8.60;;;3.90;;
36725;SDS011;44936;52.086;5.150;2024-01-30T09:58:07;7.97;;;2.60;;
36725;SDS011;44936;52.086;5.150;2024-01-30T10:00:33;5.43;;;2.20;;
36725;SDS011;44936;52.086;5.150;2024-01-30T10:02:58;10.50;;;2.60;;
36725;SDS011;44936;52.086;5.150;2024-01-30T10:05:25;6.18;;;2.50;;
36725;SDS011;44936;52.086;5.150;2024-01-30T10:07:55;6.35;;;2.22;;
36725;SDS011;44936;52.086;5.150;2024-01-30T10:10:24;7.55;;;2.78;;
36725;SDS011;44936;52.086;5.150;2024-01-30T10:12:50;8.27;;;2.70;;
36725;SDS011;44936;52.086;5.150;2024-01-30T10:15:16;6.68;;;2.95;;
36725;SDS011;44936;52.086;5.150;2024-01-30T10:17:44;7.82;;;2.38;;
36725;SDS011;44936;52.086;5.150;2024-01-30T10:20:10;6.90;;;2.45;;
36725;SDS011;44936;52.086;5.150;2024-01-30T10:22:35;4.93;;;2.63;;
36725;SDS011;44936;52.086;5.150;2024-01-30T10:25:01;6.13;;;2.67;;
36725;SDS011;44936;52.086;5.150;2024-01-30T10:27:26;6.57;;;2.67;;
36725;SDS011;44936;52.086;5.150;2024-01-30T10:29:52;5.88;;;2.47;;
36725;SDS011;44936;52.086;5.150;2024-01-30T10:32:17;8.90;;;2.85;;
36725;SDS011;44936;52.086;5.150;2024-01-30T10:34:43;6.40;;;2.40;;
36725;SDS011;44936;52.086;5.150;2024-01-30T10:37:09;6.13;;;2.42;;
36725;SDS011;44936;52.086;5.150;2024-01-30T10:39:38;5.88;;;2.10;;
36725;SDS011;44936;52.086;5.150;2024-01-30T10:42:04;7.15;;;2.65;;
36725;SDS011;44936;52.086;5.150;2024-01-30T10:44:43;7.07;;;3.00;;
36725;SDS011;44936;52.086;5.150;2024-01-30T10:47:18;7.97;;;2.55;;
36725;SDS011;44936;52.086;5.150;2024-01-30T10:49:54;5.95;;;2.63;;
36725;SDS011;44936;52.086;5.150;2024-01-30T10:52:21;3.78;;;2.10;;
36725;SDS011;44936;52.086;5.150;2024-01-30T10:54:48;8.07;;;2.40;;
36725;SDS011;44936;52.086;5.150;2024-01-30T10:57:16;7.30;;;2.58;;
36725;SDS011;44936;52.086;5.150;2024-01-30T10:59:43;4.90;;;2.10;;
36725;SDS011;44936;52.086;5.150;2024-01-30T11:02:09;6.68;;;2.20;;
36725;SDS011;44936;52.086;5.150;2024-01-30T11:04:40;7.80;;;2.65;;
36725;SDS011;44936;52.086;5.150;2024-01-30T11:07:15;5.03;;;2.10;;
36725;SDS011;44936;52.086;5.150;2024-01-30T11:10:09;5.43;;;1.55;;
36725;SDS011;44936;52.086;5.150;2024-01-30T11:12:38;3.75;;;1.60;;
36725;SDS011;44936;52.086;5.150;2024-01-30T11:15:13;6.75;;;1.70;;
36725;SDS011;44936;52.086;5.150;2024-01-30T11:20:14;7.55;;;2.50;;
36725;SDS011;44936;52.086;5.150;2024-01-30T11:22:51;4.43;;;1.27;;
36725;SDS011;44936;52.086;5.150;2024-01-30T11:25:19;4.55;;;0.98;;
36725;SDS011;44936;52.086;5.150;2024-01-30T11:27:49;1.63;;;1.13;;
36725;SDS011;44936;52.086;5.150;2024-01-30T11:30:26;2.92;;;0.90;;
36725;SDS011;44936;52.086;5.150;2024-01-30T11:33:08;3.47;;;0.80;;
36725;SDS011;44936;52.086;5.150;2024-01-30T11:35:37;4.43;;;0.80;;
36725;SDS011;44936;52.086;5.150;2024-01-30T11:38:04;1.80;;;0.63;;
36725;SDS011;44936;52.086;5.150;2024-01-30T11:40:31;2.67;;;0.70;;
36725;SDS011;44936;52.086;5.150;2024-01-30T11:42:59;1.23;;;0.60;;
36725;SDS011;44936;52.086;5.150;2024-01-30T11:45:28;1.58;;;0.68;;
36725;SDS011;44936;52.086;5.150;2024-01-30T11:47:54;4.05;;;0.90;;
36725;SDS011;44936;52.086;5.150;2024-01-30T11:50:20;3.08;;;0.80;;
36725;SDS011;44936;52.086;5.150;2024-01-30T11:52:46;4.90;;;1.10;;
36725;SDS011;44936;52.086;5.150;2024-01-30T11:55:12;2.38;;;0.80;;
36725;SDS011;44936;52.086;5.150;2024-01-30T11:57:39;1.42;;;0.90;;
36725;SDS011;44936;52.086;5.150;2024-01-30T12:00:04;1.45;;;1.10;;
36725;SDS011;44936;52.086;5.150;2024-01-30T12:02:38;6.07;;;1.25;;
36725;SDS011;44936;52.086;5.150;2024-01-30T12:05:05;2.53;;;1.15;;
36725;SDS011;44936;52.086;5.150;2024-01-30T12:07:31;1.45;;;1.02;;
36725;SDS011;44936;52.086;5.150;2024-01-30T12:09:57;3.33;;;1.00;;
36725;SDS011;44936;52.086;5.150;2024-01-30T12:12:26;2.53;;;0.82;;
36725;SDS011;44936;52.086;5.150;2024-01-30T12:14:55;3.70;;;0.80;;
36725;SDS011;44936;52.086;5.150;2024-01-30T12:17:31;2.05;;;0.93;;
36725;SDS011;44936;52.086;5.150;2024-01-30T12:20:18;2.05;;;0.80;;
36725;SDS011;44936;52.086;5.150;2024-01-30T12:22:45;1.98;;;1.00;;
36725;SDS011;44936;52.086;5.150;2024-01-30T12:25:13;2.70;;;0.70;;
36725;SDS011;44936;52.086;5.150;2024-01-30T12:27:39;3.03;;;0.73;;
36725;SDS011;44936;52.086;5.150;2024-01-30T12:30:08;2.30;;;1.17;;
36725;SDS011;44936;52.086;5.150;2024-01-30T12:32:35;0.77;;;0.70;;
36725;SDS011;44936;52.086;5.150;2024-01-30T12:35:01;3.78;;;0.80;;
36725;SDS011;44936;52.086;5.150;2024-01-30T12:37:26;4.57;;;0.85;;
36725;SDS011;44936;52.086;5.150;2024-01-30T12:39:52;1.83;;;0.80;;
36725;SDS011;44936;52.086;5.150;2024-01-30T12:42:19;1.55;;;0.90;;
36725;SDS011;44936;52.086;5.150;2024-01-30T12:44:45;3.38;;;1.23;;
36725;SDS011;44936;52.086;5.150;2024-01-30T12:47:11;2.55;;;1.52;;
36725;SDS011;44936;52.086;5.150;2024-01-30T12:49:36;2.05;;;1.10;;
36725;SDS011;44936;52.086;5.150;2024-01-30T12:52:01;1.25;;;0.90;;
36725;SDS011;44936;52.086;5.150;2024-01-30T12:54:27;1.83;;;0.80;;
36725;SDS011;44936;52.086;5.150;2024-01-30T12:56:53;0.65;;;0.60;;
36725;SDS011;44936;52.086;5.150;2024-01-30T12:59:18;0.57;;;0.32;;
36725;SDS011;44936;52.086;5.150;2024-01-30T13:01:44;0.68;;;0.40;;
36725;SDS011;44936;52.086;5.150;2024-01-30T13:04:09;2.70;;;0.35;;
36725;SDS011;44936;52.086;5.150;2024-01-30T13:06:34;3.47;;;0.80;;
36725;SDS011;44936;52.086;5.150;2024-01-30T13:09:00;2.58;;;0.25;;
36725;SDS011;44936;52.086;5.150;2024-01-30T13:11:25;0.10;;;0.10;;
36725;SDS011;44936;52.086;5.150;2024-01-30T13:13:51;0.25;;;0.25;;
36725;SDS011;44936;52.086;5.150;2024-01-30T13:16:16;3.03;;;0.45;;
36725;SDS011;44936;52.086;5.150;2024-01-30T13:18:43;2.95;;;0.40;;
36725;SDS011;44936;52.086;5.150;2024-01-30T13:21:09;1.17;;;0.30;;
36725;SDS011;44936;52.086;5.150;2024-01-30T13:23:34;2.05;;;0.30;;
36725;SDS011;44936;52.086;5.150;2024-01-30T13:26:00;1.50;;;0.30;;
36725;SDS011;44936;52.086;5.150;2024-01-30T13:28:25;0.43;;;0.20;;
36725;SDS011;44936;52.086;5.150;2024-01-30T13:30:50;0.88;;;0.30;;
36725;SDS011;44936;52.086;5.150;2024-01-30T13:33:16;1.20;;;0.20;;
36725;SDS011;44936;52.086;5.150;2024-01-30T13:35:41;2.40;;;0.28;;
36725;SDS011;44936;52.086;5.150;2024-01-30T13:38:07;1.23;;;0.20;;
36725;SDS011;44936;52.086;5.150;2024-01-30T13:40:33;2.45;;;0.30;;
36725;SDS011;44936;52.086;5.150;2024-01-30T13:42:58;0.73;;;0.17;;
36725;SDS011;44936;52.086;5.150;2024-01-30T13:45:25;2.60;;;0.20;;
36725;SDS011;44936;52.086;5.150;2024-01-30T13:47:50;5.10;;;0.32;;
36725;SDS011;44936;52.086;5.150;2024-01-30T13:50:16;4.38;;;0.43;;
36725;SDS011;44936;52.086;5.150;2024-01-30T13:52:42;2.33;;;0.30;;
36725;SDS011;44936;52.086;5.150;2024-01-30T13:55:08;3.30;;;0.30;;
36725;SDS011;44936;52.086;5.150;2024-01-30T13:57:34;1.75;;;0.20;;
36725;SDS011;44936;52.086;5.150;2024-01-30T14:00:01;2.08;;;0.25;;
36725;SDS011;44936;52.086;5.150;2024-01-30T14:02:30;0.40;;;0.13;;
36725;SDS011;44936;52.086;5.150;2024-01-30T14:04:55;2.55;;;0.30;;
36725;SDS011;44936;52.086;5.150;2024-01-30T14:07:21;2.08;;;0.50;;
36725;SDS011;44936;52.086;5.150;2024-01-30T14:09:47;4.85;;;0.45;;
36725;SDS011;44936;52.086;5.150;2024-01-30T14:12:13;1.95;;;0.30;;
36725;SDS011;44936;52.086;5.150;2024-01-30T14:14:38;0.85;;;0.30;;
36725;SDS011;44936;52.086;5.150;2024-01-30T14:17:03;0.43;;;0.32;;
36725;SDS011;44936;52.086;5.150;2024-01-30T14:19:32;2.22;;;0.30;;
36725;SDS011;44936;52.086;5.150;2024-01-30T14:21:58;2.53;;;0.30;;
36725;SDS011;44936;52.086;5.150;2024-01-30T14:24:23;5.18;;;1.13;;
36725;SDS011;44936;52.086;5.150;2024-01-30T14:26:48;2.20;;;0.43;;
36725;SDS011;44936;52.086;5.150;2024-01-30T14:29:14;2.47;;;0.70;;
36725;SDS011;44936;52.086;5.150;2024-01-30T14:31:39;0.60;;;0.57;;
36725;SDS011;44936;52.086;5.150;2024-01-30T14:34:04;4.68;;;0.60;;
36725;SDS011;44936;52.086;5.150;2024-01-30T14:36:30;2.25;;;0.65;;
36725;SDS011;44936;52.086;5.150;2024-01-30T14:38:56;3.80;;;0.57;;
36725;SDS011;44936;52.086;5.150;2024-01-30T14:41:22;2.47;;;0.75;;
36725;SDS011;44936;52.086;5.150;2024-01-30T14:43:47;2.50;;;0.80;;